Les Masies de Roda





Hora UTC 08:20
Temperatura 23.7 ºC
Suelo 15 cm 26.4 ºC
Subsuelo 10 cm 23.8 ºC
Humedad 65.7 %
Presión 1021.3 hPa
Pluja 0.0 mm
Velocidad viento 2.6 km/h
Dirección viento ESE
Radiación solar 532.1 W/m²

Datos diarios 2022-07-07



Hora UTC (invierno +1h; verano +2h)
Temperatura (ºC) Humedad (%) Presión (hPa) Velocidad viento (km/h) Precipitación (mm) Radiación solar (W/m²)
Hora UTC Aire Suelo 15 cm Subsuelo 10 cm Humedad Presión Vel. Dir. Vel. Max Dir. Intent. máx 5 min. Rad. Sol.
00:05 19.3 17.5 22.8 90.8 1020.9 0.0 NNE 0.0 E 0.0 0.1
00:10 19.2 17.4 22.7 90.8 1020.9 0.0 E 2.5 E 0.0 0.1
00:15 19.2 17.5 22.6 91.0 1020.8 0.8 E 3.5 ESE 0.0 0.1
00:20 19.1 17.4 22.6 90.9 1020.8 0.0 NE 1.4 NE 0.0 0.1
00:25 19.1 17.4 22.5 90.9 1020.9 1.1 W 4.2 WNW 0.0 0.0
00:30 19.0 17.2 22.5 90.7 1021.0 5.1 WSW 8.8 WNW 0.0 0.1
00:35 19.0 17.4 22.5 90.8 1021.0 4.8 WNW 7.8 W 0.0 0.1
00:40 19.0 17.4 22.4 90.6 1021.0 5.2 WNW 10.6 NW 0.0 0.1
00:45 18.9 17.2 22.4 90.6 1021.0 3.3 WNW 6.0 WNW 0.0 0.1
00:50 18.8 17.1 22.4 90.9 1021.1 1.7 NNW 5.7 NW 0.0 0.1
00:55 18.6 16.9 22.3 90.9 1021.1 3.6 NW 5.7 NW 0.0 0.1
01:00 18.5 16.9 22.3 91.6 1021.1 0.6 NNW 1.8 NNW 0.0 0.1
01:05 18.4 16.8 22.2 91.7 1021.1 0.1 WNW 3.5 WNW 0.0 0.1
01:10 18.4 16.8 22.2 91.8 1021.1 3.9 WNW 5.7 WNW 0.0 0.1
01:15 18.3 16.7 22.1 91.8 1021.0 3.7 NW 5.0 NW 0.0 0.1
01:20 18.3 16.7 22.1 91.7 1021.1 1.6 NNW 4.2 NNW 0.0 0.1
01:25 18.3 16.6 22.0 92.1 1021.1 0.8 N 4.6 N 0.0 0.1
01:30 18.3 16.6 22.0 91.9 1021.0 1.2 NW 4.2 NNW 0.0 0.1
01:35 18.2 16.6 21.9 91.6 1021.0 2.7 WSW 3.9 W 0.0 0.1
01:40 18.1 16.5 21.9 91.4 1021.0 3.2 WSW 5.0 WSW 0.0 0.1
01:45 18.1 16.4 21.9 91.1 1021.0 3.9 W 7.1 W 0.0 0.1
01:50 18.0 16.4 21.8 90.9 1021.0 5.0 W 7.4 WSW 0.0 0.1
01:55 18.0 16.4 21.8 90.9 1021.0 5.2 W 8.1 W 0.0 0.1
02:00 18.0 16.5 21.7 91.0 1021.0 3.5 WSW 5.7 WSW 0.0 0.1
02:05 18.0 16.5 21.7 91.1 1020.9 3.7 WSW 6.0 WSW 0.0 0.1
02:10 18.0 16.6 21.7 91.0 1020.9 3.5 WSW 5.0 WSW 0.0 0.1
02:15 18.0 16.7 21.7 91.0 1020.9 2.8 SW 4.2 WSW 0.0 0.1
02:20 18.0 16.8 21.7 91.0 1020.9 1.1 SW 3.2 SW 0.0 0.1
02:25 18.1 16.9 21.7 91.0 1020.9 2.4 WSW 3.9 WNW 0.0 0.1
02:30 18.1 16.9 21.7 91.1 1020.8 2.7 WNW 4.2 W 0.0 0.1
02:35 18.0 16.9 21.7 91.1 1020.8 0.7 WSW 4.2 WSW 0.0 0.1
02:40 18.1 16.9 21.7 91.3 1020.7 2.5 WSW 4.6 WSW 0.0 0.1
02:45 18.1 16.9 21.7 91.2 1020.7 2.5 WSW 4.6 SW 0.0 0.1
02:50 18.1 16.7 21.7 91.0 1020.7 1.6 WSW 3.9 SW 0.0 0.1
02:55 18.1 16.6 21.6 91.0 1020.7 2.4 WNW 4.2 W 0.0 0.1
03:00 18.0 16.4 21.6 91.2 1020.7 1.3 NW 3.2 WNW 0.0 0.1
03:05 17.9 16.3 21.5 91.4 1020.7 0.0 NW 1.8 NW 0.0 0.1
03:10 17.8 16.1 21.4 91.4 1020.7 0.0 NNE 0.0 NW 0.0 0.1
03:15 17.7 15.9 21.4 91.4 1020.7 0.0 NNE 0.0 NW 0.0 0.1
03:20 17.6 15.7 21.3 91.8 1020.8 0.0 NNE 0.0 NW 0.0 0.1
03:25 17.5 15.9 21.2 92.2 1020.8 0.0 NNE 0.0 NW 0.0 0.1
03:30 17.4 16.1 21.2 92.2 1020.9 0.0 NNE 0.0 NW 0.0 0.1
03:35 17.3 16.0 21.2 92.3 1020.8 0.0 NNE 0.0 NW 0.0 0.1
03:40 17.2 15.8 21.2 92.5 1020.8 0.4 NW 2.1 NW 0.0 0.1
03:45 17.4 15.8 21.1 92.9 1020.8 1.6 S 5.3 S 0.0 0.1
03:50 17.4 15.8 21.1 92.3 1020.7 3.6 SSW 5.0 SSW 0.0 0.1
03:55 17.4 15.7 21.1 91.8 1020.7 2.4 NNW 3.9 0.0 0.1
04:00 17.2 15.6 21.0 92.1 1020.7 2.8 N 3.9 NNW 0.0 0.1
04:05 17.2 15.5 21.0 92.6 1020.8 0.6 NE 2.5 NE 0.0 0.2
04:10 17.2 15.6 20.9 92.8 1020.7 0.0 NNE 0.0 NE 0.0 0.5
04:15 17.0 15.7 20.9 92.7 1020.7 0.0 NNE 0.0 NE 0.0 1.1
04:20 16.9 15.6 20.9 92.8 1020.7 0.0 NNE 0.0 NE 0.0 1.9
04:25 16.9 15.6 20.9 92.9 1020.7 1.6 NNW 3.2 NNW 0.0 2.8
04:30 16.8 15.6 20.9 93.1 1020.7 0.7 NNW 2.8 NNW 0.0 3.7
04:35 16.9 15.7 20.9 93.2 1020.8 1.0 NW 2.5 WNW 0.0 4.4
04:40 16.9 15.8 20.9 93.2 1020.8 1.5 NW 3.5 WNW 0.0 5.1
04:45 16.9 16.0 20.9 93.4 1020.9 2.1 NW 2.8 NW 0.0 6.9
04:50 16.9 16.0 20.9 93.5 1020.9 1.7 WSW 3.5 W 0.0 11.4
04:55 17.0 16.1 20.9 93.4 1021.0 1.4 W 3.2 W 0.0 14.1
05:00 17.1 16.3 20.9 93.2 1021.0 3.2 W 4.6 W 0.0 19.7
05:05 17.2 16.5 20.9 93.1 1021.0 2.4 W 3.2 SW 0.0 23.7
05:10 17.3 16.7 21.0 93.0 1021.0 2.4 WNW 3.2 WNW 0.0 28.1
05:15 17.3 16.8 21.0 92.6 1021.1 2.3 W 3.5 W 0.0 36.4
05:20 17.5 17.0 21.0 92.0 1021.1 1.8 W 3.2 W 0.0 50.1
05:25 17.6 17.1 21.1 91.6 1021.2 1.8 SW 4.2 WSW 0.0 63.2
05:30 17.8 17.3 21.1 90.8 1021.1 3.6 SSW 6.0 S 0.0 87.7
05:35 18.0 17.5 21.2 89.3 1021.2 4.0 SSW 7.1 SSW 0.0 101.9
05:40 18.1 17.8 21.2 88.7 1021.2 3.8 S 6.0 SSW 0.0 109.3
05:45 18.3 18.1 21.2 88.7 1021.2 4.0 S 6.0 SSW 0.0 121.3
05:50 18.6 18.5 21.3 88.4 1021.3 5.3 SW 8.5 SW 0.0 128.5
05:55 18.8 18.7 21.3 87.3 1021.3 3.1 S 7.1 S 0.0 120.9
06:00 18.8 18.7 21.4 86.5 1021.3 4.7 SSW 6.7 SSW 0.0 114.1
06:05 18.8 18.7 21.4 86.7 1021.3 5.3 SSW 8.1 SSW 0.0 130.7
06:10 18.9 18.7 21.4 86.7 1021.3 4.5 SW 7.4 W 0.0 106.5
06:15 18.9 18.7 21.4 86.5 1021.3 3.9 WSW 6.4 WSW 0.0 118.0
06:20 19.0 18.9 21.4 86.0 1021.3 4.8 SW 6.4 SW 0.0 222.3
06:25 19.4 19.4 21.5 85.5 1021.3 4.1 SW 7.1 SSW 0.0 246.1
06:30 19.4 19.4 21.5 84.7 1021.3 5.2 SSW 7.4 SSW 0.0 132.6
06:35 19.4 19.5 21.6 85.1 1021.4 2.1 SW 6.0 WSW 0.0 256.7
06:40 19.9 20.3 21.6 84.1 1021.4 1.6 WNW 2.8 WNW 0.0 248.1
06:45 20.1 20.6 21.7 82.6 1021.4 2.9 SSE 6.0 S 0.0 231.1
06:50 20.1 21.1 21.8 81.9 1021.4 1.0 ESE 3.9 E 0.0 214.8
06:55 20.3 21.1 21.9 81.5 1021.4 1.7 SSE 5.0 S 0.0 251.0
07:00 20.7 21.6 21.9 81.1 1021.4 1.9 WSW 5.7 SW 0.0 379.1
07:05 21.0 22.0 22.0 80.4 1021.4 2.8 WSW 5.3 W 0.0 386.4
07:10 21.2 22.3 22.1 78.2 1021.5 3.5 SSW 6.4 SSW 0.0 431.5
07:15 21.0 22.3 22.3 78.1 1021.5 3.8 S 7.8 SSW 0.0 419.5
07:20 21.3 22.8 22.3 76.7 1021.5 1.8 ESE 4.6 SE 0.0 417.7
07:25 21.6 23.4 22.5 75.3 1021.5 2.3 ESE 6.0 ESE 0.0 437.8
07:30 21.7 23.7 22.6 74.4 1021.5 3.3 ENE 5.7 ENE 0.0 446.9
07:35 21.9 24.0 22.8 74.1 1021.5 2.6 SE 5.0 ESE 0.0 457.6
07:40 22.1 24.0 22.9 74.2 1021.5 3.5 S 7.1 SW 0.0 474.3
07:45 22.1 24.1 23.0 73.5 1021.5 1.8 SSE 4.2 S 0.0 431.8
07:50 22.4 24.6 23.1 73.2 1021.5 4.0 WNW 8.1 SW 0.0 499.5
07:55 22.5 24.7 23.2 72.1 1021.5 4.1 SSW 6.4 SSW 0.0 511.9
08:00 22.5 24.7 23.3 72.0 1021.5 4.9 WSW 6.7 WSW 0.0 523.5
08:05 22.7 25.0 23.4 71.4 1021.5 2.5 NW 6.4 W 0.0 534.5
08:10 23.2 25.6 23.5 67.8 1021.4 2.8 SSE 6.0 S 0.0 549.2
08:15 23.3 25.7 23.7 67.2 1021.4 2.2 SSE 6.4 SSW 0.0 562.9
08:20 23.7 26.4 23.8 65.7 1021.3 2.6 ESE 6.0 SE 0.0 532.1
Máxima 23.8 26.4 23.8 93.5 1021.5 5.3 SSW 10.6 NW 0.0 562.9
Mínima 16.8 15.5 20 65.7 1020.7
Total 0.0